Time;durP1;ratioP1;P1;durP2;ratioP2;P2;SDS_P1;SDS_P2;PMS_P1;PMS_P2;Temp;Humidity;BMP_temperature;BMP_pressure;BME280_temperature;BME280_humidity;BME280_pressure;Samples;Min_cycle;Max_cycle;Signal;HPM_P1;HPM_P2
2023/08/30 00:00:47;;;;;;;16.05;13.20;;;;;;;;;;5091425;28;20123;-65
2023/08/30 00:03:13;;;;;;;17.05;13.70;;;;;;;;;;5090975;28;20048;-65
2023/08/30 00:05:40;;;;;;;16.60;13.25;;;;;;;;;;5091668;28;20048;-65
2023/08/30 00:08:06;;;;;;;17.45;12.48;;;;;;;;;;5091705;28;20044;-65
2023/08/30 00:10:32;;;;;;;18.80;12.68;;;;;;;;;;5091101;28;20398;-65
2023/08/30 00:12:59;;;;;;;13.00;11.43;;;;;;;;;;5091298;28;20036;-65
2023/08/30 00:15:25;;;;;;;13.25;10.45;;;;;;;;;;5091215;28;20072;-65
2023/08/30 00:17:54;;;;;;;15.50;11.27;;;;;;;;;;5091070;28;20490;-65
2023/08/30 00:20:20;;;;;;;14.35;11.88;;;;;;;;;;5091271;28;20051;-65
2023/08/30 00:22:48;;;;;;;12.27;10.15;;;;;;;;;;5091422;28;20075;-65
2023/08/30 00:25:14;;;;;;;21.55;10.00;;;;;;;;;;5088608;28;20043;-65
2023/08/30 00:27:40;;;;;;;15.15;10.15;;;;;;;;;;5070916;28;20044;-65
2023/08/30 00:30:09;;;;;;;12.35;10.13;;;;;;;;;;5070704;28;20048;-65
2023/08/30 00:32:35;;;;;;;12.48;9.18;;;;;;;;;;5073255;28;20040;-65
2023/08/30 00:35:01;;;;;;;14.50;9.75;;;;;;;;;;5074867;28;20356;-65
2023/08/30 00:37:27;;;;;;;12.43;9.38;;;;;;;;;;5074781;28;20040;-65
2023/08/30 00:39:53;;;;;;;11.73;8.95;;;;;;;;;;5074523;28;20556;-65
2023/08/30 00:42:19;;;;;;;10.05;8.60;;;;;;;;;;5074356;28;20045;-65
2023/08/30 00:44:45;;;;;;;15.38;8.60;;;;;;;;;;5074743;28;20044;-65
2023/08/30 00:47:11;;;;;;;10.32;8.57;;;;;;;;;;5074697;28;20032;-65
2023/08/30 00:49:37;;;;;;;9.93;8.05;;;;;;;;;;5082311;28;20046;-65
2023/08/30 00:52:06;;;;;;;10.32;8.27;;;;;;;;;;5094758;28;20124;-65
2023/08/30 00:54:32;;;;;;;12.15;9.05;;;;;;;;;;5094901;28;20085;-65
2023/08/30 00:56:59;;;;;;;9.52;8.35;;;;;;;;;;5093900;28;20036;-65
2023/08/30 00:59:25;;;;;;;10.82;9.00;;;;;;;;;;5094259;28;20044;-65
2023/08/30 01:01:52;;;;;;;10.40;8.73;;;;;;;;;;5094501;28;20037;-65
2023/08/30 01:04:19;;;;;;;10.25;9.13;;;;;;;;;;5094122;28;20433;-65
2023/08/30 01:06:44;;;;;;;10.32;8.80;;;;;;;;;;5094471;28;20081;-65
2023/08/30 01:09:12;;;;;;;13.70;9.35;;;;;;;;;;5093220;28;20386;-65
2023/08/30 01:11:46;;;;;;;13.52;9.80;;;;;;;;;;5093870;28;20051;-65
2023/08/30 01:14:18;;;;;;;12.45;10.18;;;;;;;;;;5094568;28;20032;-65
2023/08/30 01:16:44;;;;;;;;;;;;;;;;;;5094805;28;20429;-65
2023/08/30 01:19:20;;;;;;;11.80;9.88;;;;;;;;;;5093727;28;19916;-65
2023/08/30 01:21:53;;;;;;;14.65;10.95;;;;;;;;;;5094200;28;20048;-65
2023/08/30 01:24:26;;;;;;;12.23;10.02;;;;;;;;;;5093873;28;20089;-65
2023/08/30 01:27:11;;;;;;;14.73;10.63;;;;;;;;;;5078143;28;20391;-65
2023/08/30 01:29:38;;;;;;;14.10;10.82;;;;;;;;;;5073317;28;20136;-65
2023/08/30 01:32:05;;;;;;;12.60;10.20;;;;;;;;;;5073345;28;21050;-65
2023/08/30 01:34:33;;;;;;;13.80;10.15;;;;;;;;;;5072097;28;20044;-65
2023/08/30 01:36:59;;;;;;;15.13;10.80;;;;;;;;;;5073653;28;20045;-65
2023/08/30 01:39:26;;;;;;;12.38;10.73;;;;;;;;;;5072883;28;20046;-65
2023/08/30 01:41:58;;;;;;;13.32;10.15;;;;;;;;;;5073119;28;20048;-65
2023/08/30 01:44:25;;;;;;;15.13;10.95;;;;;;;;;;5073443;28;20055;-65
2023/08/30 01:46:51;;;;;;;12.25;10.38;;;;;;;;;;5073207;28;20062;-65
2023/08/30 01:49:17;;;;;;;14.38;10.40;;;;;;;;;;5078724;28;20036;-65
2023/08/30 01:51:43;;;;;;;13.23;10.45;;;;;;;;;;5093703;28;20058;-65
2023/08/30 01:54:12;;;;;;;13.27;9.65;;;;;;;;;;5092897;28;20110;-65
2023/08/30 01:56:38;;;;;;;14.57;9.90;;;;;;;;;;5093532;28;20462;-65
2023/08/30 01:59:04;;;;;;;10.73;8.73;;;;;;;;;;5093529;28;20093;-65
2023/08/30 02:01:30;;;;;;;13.40;9.82;;;;;;;;;;5092619;28;20046;-65
2023/08/30 02:03:56;;;;;;;10.48;9.18;;;;;;;;;;5093459;28;20127;-65
2023/08/30 02:06:24;;;;;;;11.20;8.95;;;;;;;;;;5092228;28;20043;-65
2023/08/30 02:09:04;;;;;;;13.30;10.18;;;;;;;;;;5091558;28;20048;-65
2023/08/30 02:11:33;;;;;;;11.38;9.27;;;;;;;;;;5093062;28;20036;-65
2023/08/30 02:14:00;;;;;;;10.48;9.13;;;;;;;;;;5093168;28;20036;-65
2023/08/30 02:16:27;;;;;;;12.25;9.63;;;;;;;;;;5092501;28;20044;-65
2023/08/30 02:18:53;;;;;;;11.55;9.30;;;;;;;;;;5093090;28;20040;-65
2023/08/30 02:21:19;;;;;;;12.38;9.38;;;;;;;;;;5093113;28;20044;-65
2023/08/30 02:23:49;;;;;;;11.75;9.65;;;;;;;;;;5092625;28;20083;-65
2023/08/30 02:26:18;;;;;;;14.13;9.25;;;;;;;;;;5082210;28;20040;-65
2023/08/30 02:28:44;;;;;;;10.02;8.77;;;;;;;;;;5072467;28;20063;-65
2023/08/30 02:31:10;;;;;;;13.57;9.75;;;;;;;;;;5072220;28;20044;-65
2023/08/30 02:33:37;;;;;;;12.85;9.80;;;;;;;;;;5072519;28;20119;-65
2023/08/30 02:36:03;;;;;;;11.73;9.55;;;;;;;;;;5072476;28;20040;-65
2023/08/30 02:38:29;;;;;;;13.38;8.75;;;;;;;;;;5072118;28;20174;-65
2023/08/30 02:40:55;;;;;;;12.50;9.00;;;;;;;;;;5072077;28;20123;-65
2023/08/30 02:43:22;;;;;;;11.65;8.93;;;;;;;;;;5072066;28;20530;-65
2023/08/30 02:45:48;;;;;;;13.05;9.02;;;;;;;;;;5070520;28;20041;-65
2023/08/30 02:48:15;;;;;;;13.30;8.38;;;;;;;;;;5071953;28;20055;-65
2023/08/30 02:50:41;;;;;;;11.35;9.05;;;;;;;;;;5087542;28;20051;-65
2023/08/30 02:53:10;;;;;;;10.43;8.75;;;;;;;;;;5091455;28;20032;-65
2023/08/30 02:55:36;;;;;;;11.32;9.57;;;;;;;;;;5092505;28;20339;-65
2023/08/30 02:58:02;;;;;;;10.45;9.07;;;;;;;;;;5092345;28;20040;-65
2023/08/30 03:00:28;;;;;;;14.32;10.18;;;;;;;;;;5092063;28;20423;-65
2023/08/30 03:02:54;;;;;;;12.75;9.13;;;;;;;;;;5091994;28;20546;-65
2023/08/30 03:05:20;;;;;;;13.93;9.13;;;;;;;;;;5092263;28;20573;-65
2023/08/30 03:07:46;;;;;;;12.48;9.90;;;;;;;;;;5092123;28;20087;-65
2023/08/30 03:10:12;;;;;;;14.95;10.55;;;;;;;;;;5091655;28;20055;-65
2023/08/30 03:12:38;;;;;;;12.43;9.80;;;;;;;;;;5092083;28;20439;-65
2023/08/30 03:15:05;;;;;;;15.93;10.27;;;;;;;;;;5092134;28;20046;-65
2023/08/30 03:17:31;;;;;;;12.10;9.88;;;;;;;;;;5091651;28;20036;-65
2023/08/30 03:19:58;;;;;;;12.40;10.40;;;;;;;;;;5091923;28;20537;-65
2023/08/30 03:22:24;;;;;;;13.85;10.95;;;;;;;;;;5091724;28;20101;-65
2023/08/30 03:24:50;;;;;;;13.45;10.95;;;;;;;;;;5091682;28;20051;-65
2023/08/30 03:27:19;;;;;;;12.40;10.07;;;;;;;;;;5072622;28;20379;-65
2023/08/30 03:29:45;;;;;;;12.27;10.65;;;;;;;;;;5071311;28;20052;-65
2023/08/30 03:32:11;;;;;;;14.65;10.68;;;;;;;;;;5070857;28;20032;-65
2023/08/30 03:34:37;;;;;;;13.85;10.82;;;;;;;;;;5071181;28;20040;-65
2023/08/30 03:37:03;;;;;;;15.52;11.30;;;;;;;;;;5070237;28;20089;-65
2023/08/30 03:39:29;;;;;;;15.52;11.45;;;;;;;;;;5071283;28;20048;-65
2023/08/30 03:41:55;;;;;;;17.45;11.88;;;;;;;;;;5071535;28;20474;-65
2023/08/30 03:44:21;;;;;;;13.77;10.98;;;;;;;;;;5071588;28;20082;-65
2023/08/30 03:46:47;;;;;;;13.57;10.85;;;;;;;;;;5071188;28;20048;-65
2023/08/30 03:49:13;;;;;;;16.10;11.20;;;;;;;;;;5076286;28;20470;-65
2023/08/30 03:51:39;;;;;;;14.30;10.48;;;;;;;;;;5091527;28;20040;-65
2023/08/30 03:54:05;;;;;;;14.27;10.55;;;;;;;;;;5091125;28;20386;-65
2023/08/30 03:56:31;;;;;;;14.65;11.38;;;;;;;;;;5091453;28;20036;-65
2023/08/30 03:58:57;;;;;;;13.77;10.88;;;;;;;;;;5091700;28;20040;-65
2023/08/30 04:01:23;;;;;;;12.20;10.38;;;;;;;;;;5091203;28;20055;-65
2023/08/30 04:03:49;;;;;;;13.00;10.68;;;;;;;;;;5091401;28;20047;-65
2023/08/30 04:06:15;;;;;;;13.45;10.30;;;;;;;;;;5095304;28;20040;-65
2023/08/30 04:08:41;;;;;;;13.50;11.13;;;;;;;;;;5095301;28;20047;-65
2023/08/30 04:11:07;;;;;;;16.08;10.20;;;;;;;;;;5095365;28;20040;-65
2023/08/30 04:13:35;;;;;;;14.20;10.10;;;;;;;;;;5095620;28;20051;-65
2023/08/30 04:16:01;;;;;;;13.02;10.20;;;;;;;;;;5095204;28;20417;-65
2023/08/30 04:18:27;;;;;;;13.88;11.60;;;;;;;;;;5095486;28;20033;-65
2023/08/30 04:20:53;;;;;;;12.27;9.88;;;;;;;;;;5095375;28;20039;-65
2023/08/30 04:23:19;;;;;;;13.43;10.52;;;;;;;;;;5094938;28;20048;-65
2023/08/30 04:25:45;;;;;;;13.07;10.85;;;;;;;;;;5088721;28;20040;-65
2023/08/30 04:28:11;;;;;;;14.75;11.55;;;;;;;;;;5074832;28;20119;-65
2023/08/30 04:30:38;;;;;;;15.63;11.35;;;;;;;;;;5074402;28;20148;-65
2023/08/30 04:33:05;;;;;;;13.95;11.32;;;;;;;;;;5073452;28;20376;-65
2023/08/30 04:35:31;;;;;;;14.15;9.68;;;;;;;;;;5074672;28;20041;-65
2023/08/30 04:37:58;;;;;;;15.48;10.95;;;;;;;;;;5073092;28;20046;-65
2023/08/30 04:40:25;;;;;;;14.13;10.55;;;;;;;;;;5074659;28;20094;-65
2023/08/30 04:42:51;;;;;;;14.35;10.90;;;;;;;;;;5074733;28;20076;-65
2023/08/30 04:45:17;;;;;;;14.70;10.95;;;;;;;;;;5073980;28;20558;-65
2023/08/30 04:47:45;;;;;;;12.68;11.13;;;;;;;;;;5074712;28;20090;-65
2023/08/30 04:50:11;;;;;;;12.80;11.18;;;;;;;;;;5087182;28;20495;-65
2023/08/30 04:52:37;;;;;;;12.88;10.95;;;;;;;;;;5094356;28;20040;-65
2023/08/30 04:55:03;;;;;;;17.48;11.10;;;;;;;;;;5094742;28;20032;-65
2023/08/30 04:57:29;;;;;;;16.40;11.07;;;;;;;;;;5094770;28;20040;-65
2023/08/30 04:59:56;;;;;;;15.77;10.70;;;;;;;;;;5094278;28;20410;-65
2023/08/30 05:02:22;;;;;;;15.63;11.27;;;;;;;;;;5094430;28;20140;-65
2023/08/30 05:04:48;;;;;;;15.30;11.55;;;;;;;;;;5094604;28;20047;-65
2023/08/30 05:07:14;;;;;;;15.80;11.50;;;;;;;;;;5094052;28;20043;-65
2023/08/30 05:09:40;;;;;;;12.35;10.77;;;;;;;;;;5094441;28;20035;-65
2023/08/30 05:12:07;;;;;;;14.63;10.98;;;;;;;;;;5094464;28;20042;-65
2023/08/30 05:14:33;;;;;;;13.82;11.43;;;;;;;;;;5093883;28;20658;-65
2023/08/30 05:16:59;;;;;;;13.57;11.15;;;;;;;;;;5093580;28;20052;-65
2023/08/30 05:19:25;;;;;;;16.08;11.10;;;;;;;;;;5092881;28;20055;-65
2023/08/30 05:21:54;;;;;;;15.13;11.10;;;;;;;;;;5093719;28;20420;-65
2023/08/30 05:24:20;;;;;;;14.38;11.35;;;;;;;;;;5093922;28;20097;-65
2023/08/30 05:26:46;;;;;;;13.85;10.68;;;;;;;;;;5079004;28;20040;-65
2023/08/30 05:29:13;;;;;;;15.07;11.00;;;;;;;;;;5071955;28;20102;-65
2023/08/30 05:31:40;;;;;;;15.82;11.85;;;;;;;;;;5073445;28;20056;-65
2023/08/30 05:34:06;;;;;;;13.05;10.05;;;;;;;;;;5073848;28;20487;-65
2023/08/30 05:36:32;;;;;;;15.23;11.02;;;;;;;;;;5073461;28;20612;-65
2023/08/30 05:38:58;;;;;;;17.15;11.02;;;;;;;;;;5073595;28;20040;-65
2023/08/30 05:41:24;;;;;;;17.70;10.63;;;;;;;;;;5073464;28;20098;-65
2023/08/30 05:43:51;;;;;;;15.52;10.88;;;;;;;;;;5073304;28;20036;-65
2023/08/30 05:46:17;;;;;;;16.88;10.93;;;;;;;;;;5073600;28;20041;-65
2023/08/30 05:48:43;;;;;;;15.55;10.88;;;;;;;;;;5073896;28;20044;-65
2023/08/30 05:51:09;;;;;;;17.77;12.02;;;;;;;;;;5092959;28;20044;-65
2023/08/30 05:53:35;;;;;;;14.48;11.20;;;;;;;;;;5093664;28;20043;-65
2023/08/30 05:56:01;;;;;;;16.60;10.93;;;;;;;;;;5093666;28;20402;-65
2023/08/30 05:58:27;;;;;;;15.65;10.57;;;;;;;;;;5093195;28;20051;-65
2023/08/30 06:00:53;;;;;;;15.18;10.88;;;;;;;;;;5093474;28;20040;-65
2023/08/30 06:03:19;;;;;;;16.48;11.23;;;;;;;;;;5093472;28;20075;-65
2023/08/30 06:05:45;;;;;;;15.77;11.68;;;;;;;;;;5093118;28;20047;-65
2023/08/30 06:08:12;;;;;;;15.93;10.85;;;;;;;;;;5093493;28;20040;-65
2023/08/30 06:10:38;;;;;;;18.85;11.85;;;;;;;;;;5093210;28;20546;-65
2023/08/30 06:13:05;;;;;;;19.85;11.63;;;;;;;;;;5092795;28;20717;-65
2023/08/30 06:15:31;;;;;;;15.95;11.45;;;;;;;;;;5093366;28;20039;-65
2023/08/30 06:17:58;;;;;;;17.80;12.20;;;;;;;;;;5093126;28;20047;-65
2023/08/30 06:20:24;;;;;;;20.70;12.02;;;;;;;;;;5092285;28;20048;-65
2023/08/30 06:22:50;;;;;;;16.92;11.38;;;;;;;;;;5092899;28;20036;-65
2023/08/30 06:25:16;;;;;;;18.40;11.55;;;;;;;;;;5090452;28;20044;-65
2023/08/30 06:27:43;;;;;;;18.40;11.70;;;;;;;;;;5072586;28;20057;-65
2023/08/30 06:30:10;;;;;;;15.48;11.35;;;;;;;;;;5072040;28;20052;-65
2023/08/30 06:32:36;;;;;;;17.00;11.48;;;;;;;;;;5072812;28;20474;-65
2023/08/30 06:35:03;;;;;;;19.05;11.15;;;;;;;;;;5072510;28;20129;-65
2023/08/30 06:37:29;;;;;;;15.95;10.93;;;;;;;;;;5072279;28;20044;-65
2023/08/30 06:39:55;;;;;;;16.75;10.25;;;;;;;;;;5072254;28;20040;-65
2023/08/30 06:42:21;;;;;;;18.58;11.30;;;;;;;;;;5072037;28;20043;-65
2023/08/30 06:44:47;;;;;;;18.70;11.02;;;;;;;;;;5071977;28;20040;-65
2023/08/30 06:47:13;;;;;;;13.95;9.90;;;;;;;;;;5072433;28;20050;-65
2023/08/30 06:49:40;;;;;;;16.52;11.50;;;;;;;;;;5080730;28;20071;-65
2023/08/30 06:52:06;;;;;;;18.63;11.23;;;;;;;;;;5092089;28;20089;-65
2023/08/30 06:54:33;;;;;;;17.40;11.98;;;;;;;;;;5092304;28;20043;-65
2023/08/30 06:57:00;;;;;;;18.00;12.00;;;;;;;;;;5092424;28;20071;-65
2023/08/30 06:59:26;;;;;;;13.93;10.40;;;;;;;;;;5091992;28;20468;-65
2023/08/30 07:01:52;;;;;;;17.10;11.55;;;;;;;;;;5092373;28;20036;-65
2023/08/30 07:04:18;;;;;;;17.83;11.43;;;;;;;;;;5092158;28;20094;-65
2023/08/30 07:06:45;;;;;;;15.68;11.23;;;;;;;;;;5091953;28;20257;-65
2023/08/30 07:09:14;;;;;;;14.00;11.13;;;;;;;;;;5090860;28;20638;-65
2023/08/30 07:11:40;;;;;;;15.38;10.73;;;;;;;;;;5091730;28;20044;-65
2023/08/30 07:14:06;;;;;;;17.65;11.77;;;;;;;;;;5091922;28;20062;-65
2023/08/30 07:16:32;;;;;;;15.02;11.32;;;;;;;;;;5092194;28;20039;-65
2023/08/30 07:18:58;;;;;;;15.35;11.13;;;;;;;;;;5091988;28;20035;-65
2023/08/30 07:21:24;;;;;;;17.35;12.10;;;;;;;;;;5091557;28;20043;-65
2023/08/30 07:23:50;;;;;;;14.40;10.88;;;;;;;;;;5092081;28;20040;-65
2023/08/30 07:26:16;;;;;;;15.38;11.27;;;;;;;;;;5081065;28;20166;-65
2023/08/30 07:28:42;;;;;;;15.63;10.82;;;;;;;;;;5071338;28;20056;-65
2023/08/30 07:31:09;;;;;;;16.00;10.88;;;;;;;;;;5071473;28;20053;-65
2023/08/30 07:33:35;;;;;;;18.55;11.65;;;;;;;;;;5072908;28;20044;-65
2023/08/30 07:36:02;;;;;;;15.38;10.75;;;;;;;;;;5091599;28;20162;-65
2023/08/30 07:38:28;;;;;;;15.23;10.50;;;;;;;;;;5091789;28;20070;-65
2023/08/30 07:40:54;;;;;;;19.67;11.57;;;;;;;;;;5091324;28;20181;-64
2023/08/30 07:43:20;;;;;;;17.38;11.50;;;;;;;;;;5091532;28;20043;-65
2023/08/30 07:45:46;;;;;;;18.13;11.60;;;;;;;;;;5091591;28;20044;-65
2023/08/30 07:48:13;;;;;;;16.70;10.88;;;;;;;;;;5086404;28;20040;-65
2023/08/30 07:50:39;;;;;;;14.13;11.00;;;;;;;;;;5083381;28;20047;-64
2023/08/30 07:53:05;;;;;;;20.67;11.65;;;;;;;;;;5090407;28;20044;-65
2023/08/30 07:55:31;;;;;;;18.88;11.50;;;;;;;;;;5091395;28;20032;-65
2023/08/30 07:57:57;;;;;;;16.80;11.48;;;;;;;;;;5090866;28;20082;-65
2023/08/30 08:00:23;;;;;;;19.48;12.23;;;;;;;;;;5090197;28;20052;-65
2023/08/30 08:02:49;;;;;;;16.23;11.82;;;;;;;;;;5091582;28;20638;-64
2023/08/30 08:05:15;;;;;;;16.75;11.70;;;;;;;;;;5090525;28;20101;-64
2023/08/30 08:07:42;;;;;;;18.85;12.32;;;;;;;;;;5091323;28;20035;-65
2023/08/30 08:10:09;;;;;;;17.58;11.85;;;;;;;;;;5090442;28;20070;-64
2023/08/30 08:12:35;;;;;;;16.33;11.88;;;;;;;;;;5090307;28;20032;-64
2023/08/30 08:15:02;;;;;;;18.88;12.35;;;;;;;;;;5080059;28;20040;-65
2023/08/30 08:17:28;;;;;;;17.77;11.85;;;;;;;;;;5088300;28;20536;-65
2023/08/30 08:19:54;;;;;;;18.33;12.00;;;;;;;;;;5086816;28;20094;-66
2023/08/30 08:22:20;;;;;;;17.90;11.85;;;;;;;;;;5070841;28;20414;-65
2023/08/30 08:24:46;;;;;;;19.15;12.68;;;;;;;;;;5082539;28;20076;-66
2023/08/30 08:27:12;;;;;;;19.83;12.10;;;;;;;;;;5075610;28;20044;-65
2023/08/30 08:29:39;;;;;;;18.75;10.88;;;;;;;;;;5088314;28;20052;-65
2023/08/30 08:32:05;;;;;;;19.08;11.40;;;;;;;;;;5089201;28;20136;-65
2023/08/30 08:34:31;;;;;;;17.45;10.85;;;;;;;;;;5088162;28;20387;-65
2023/08/30 08:36:57;;;;;;;20.63;11.77;;;;;;;;;;5090444;28;20044;-65
2023/08/30 08:39:23;;;;;;;18.30;10.52;;;;;;;;;;5084560;28;20046;-65
2023/08/30 08:41:53;;;;;;;15.98;10.02;;;;;;;;;;5074688;28;20059;-65
2023/08/30 08:44:19;;;;;;;15.32;10.45;;;;;;;;;;5090629;28;20174;-65
2023/08/30 08:46:46;;;;;;;14.80;10.13;;;;;;;;;;5087246;28;20477;-66
2023/08/30 08:49:13;;;;;;;15.98;9.50;;;;;;;;;;5089631;28;20406;-66
2023/08/30 08:51:41;;;;;;;14.95;10.10;;;;;;;;;;5090837;28;20428;-66
2023/08/30 08:54:09;;;;;;;15.27;10.48;;;;;;;;;;5094440;28;20044;-66
2023/08/30 08:56:35;;;;;;;17.13;11.10;;;;;;;;;;5092563;28;20067;-66
2023/08/30 08:59:01;;;;;;;15.93;10.32;;;;;;;;;;5084090;28;20040;-66
2023/08/30 09:01:28;;;;;;;15.80;10.25;;;;;;;;;;5093178;28;20398;-66
2023/08/30 09:03:54;;;;;;;15.93;10.50;;;;;;;;;;5090708;28;20052;-66
2023/08/30 09:06:21;;;;;;;16.98;9.80;;;;;;;;;;5094919;28;20482;-66
2023/08/30 09:08:47;;;;;;;17.48;10.93;;;;;;;;;;5091339;28;20048;-66
2023/08/30 09:11:13;;;;;;;17.35;11.10;;;;;;;;;;5092922;28;20043;-66
2023/08/30 09:13:39;;;;;;;14.32;10.27;;;;;;;;;;5093678;28;20047;-66
2023/08/30 09:16:13;;;;;;;16.25;10.48;;;;;;;;;;5093850;28;20075;-66
2023/08/30 09:18:39;;;;;;;15.90;10.85;;;;;;;;;;5093048;28;20098;-66
2023/08/30 09:21:09;;;;;;;16.88;11.07;;;;;;;;;;5093016;28;20052;-66
2023/08/30 09:23:35;;;;;;;16.38;11.10;;;;;;;;;;5093858;28;20570;-66
2023/08/30 09:26:02;;;;;;;16.77;10.88;;;;;;;;;;5093490;28;20040;-66
2023/08/30 09:28:28;;;;;;;14.93;10.13;;;;;;;;;;5090624;28;20055;-66
2023/08/30 09:30:54;;;;;;;13.73;10.10;;;;;;;;;;5093009;28;20432;-66
2023/08/30 09:33:24;;;;;;;17.02;10.77;;;;;;;;;;5093187;28;20044;-66
2023/08/30 09:35:50;;;;;;;18.42;11.55;;;;;;;;;;5093681;28;20646;-66
2023/08/30 09:38:19;;;;;;;16.55;11.45;;;;;;;;;;5093443;28;20038;-66
2023/08/30 09:40:45;;;;;;;16.75;11.93;;;;;;;;;;5092281;28;20048;-66
2023/08/30 09:43:12;;;;;;;17.23;12.57;;;;;;;;;;5093484;28;20044;-66
2023/08/30 09:45:38;;;;;;;16.10;11.20;;;;;;;;;;5093563;28;20492;-66
2023/08/30 09:48:05;;;;;;;19.20;11.75;;;;;;;;;;5092541;28;20448;-66
2023/08/30 09:50:34;;;;;;;16.90;11.75;;;;;;;;;;5072728;28;20048;-66
2023/08/30 09:53:02;;;;;;;20.15;12.75;;;;;;;;;;5082158;28;20131;-66
2023/08/30 09:55:29;;;;;;;19.23;12.85;;;;;;;;;;5092812;28;20040;-66
2023/08/30 09:57:55;;;;;;;19.55;13.18;;;;;;;;;;5093149;28;20107;-66
2023/08/30 10:00:21;;;;;;;18.10;13.20;;;;;;;;;;5092503;28;20811;-66
2023/08/30 10:02:47;;;;;;;17.20;12.63;;;;;;;;;;5091974;28;20055;-66
2023/08/30 10:05:14;;;;;;;19.80;12.80;;;;;;;;;;5092587;28;20040;-66
2023/08/30 10:07:40;;;;;;;23.42;13.45;;;;;;;;;;5093236;28;20028;-66
2023/08/30 10:10:07;;;;;;;18.58;13.63;;;;;;;;;;5091776;28;20088;-66
2023/08/30 10:12:33;;;;;;;19.83;13.73;;;;;;;;;;5092711;28;20032;-66
2023/08/30 10:14:59;;;;;;;17.00;13.23;;;;;;;;;;5092604;28;20040;-66
2023/08/30 10:17:28;;;;;;;19.65;14.35;;;;;;;;;;5084251;28;20048;-66
2023/08/30 10:19:55;;;;;;;17.02;12.35;;;;;;;;;;5092152;28;20032;-66
2023/08/30 10:22:22;;;;;;;14.27;10.48;;;;;;;;;;5090846;28;20083;-66
2023/08/30 10:24:56;;;;;;;15.52;11.13;;;;;;;;;;5092215;28;20485;-66
2023/08/30 10:27:23;;;;;;;17.80;12.35;;;;;;;;;;5091972;28;20072;-65
2023/08/30 10:29:50;;;;;;;16.60;11.63;;;;;;;;;;5087850;28;20048;-65
2023/08/30 10:32:21;;;;;;;14.50;10.43;;;;;;;;;;5091971;28;20040;-66
2023/08/30 10:34:49;;;;;;;16.63;10.93;;;;;;;;;;5092566;28;20409;-65
2023/08/30 10:37:15;;;;;;;15.32;10.80;;;;;;;;;;5091677;28;20496;-65
2023/08/30 10:39:42;;;;;;;15.48;10.35;;;;;;;;;;5091806;28;20055;-65
2023/08/30 10:42:12;;;;;;;13.93;9.98;;;;;;;;;;5092373;28;20071;-65
2023/08/30 10:45:07;;;;;;;16.08;10.88;;;;;;;;;;5092712;28;20121;-65
2023/08/30 10:47:37;;;;;;;13.13;9.63;;;;;;;;;;5091457;28;20062;-66
2023/08/30 10:50:10;;;;;;;13.45;10.07;;;;;;;;;;5092086;28;20161;-66
2023/08/30 10:52:36;;;;;;;15.00;10.57;;;;;;;;;;5092558;28;20079;-65
2023/08/30 10:55:09;;;;;;;15.63;10.68;;;;;;;;;;5091944;28;20390;-65
2023/08/30 10:57:35;;;;;;;12.70;10.23;;;;;;;;;;5092425;28;20398;-65
2023/08/30 11:00:09;;;;;;;15.43;9.93;;;;;;;;;;5091131;28;20040;-66
2023/08/30 11:02:35;;;;;;;13.27;10.65;;;;;;;;;;5091498;28;20189;-66
2023/08/30 11:05:03;;;;;;;14.75;10.27;;;;;;;;;;5092007;28;20036;-66
2023/08/30 11:07:29;;;;;;;14.23;10.20;;;;;;;;;;5092043;28;20051;-66
2023/08/30 11:09:55;;;;;;;12.68;9.68;;;;;;;;;;5091264;28;20046;-66
2023/08/30 11:12:29;;;;;;;13.02;10.00;;;;;;;;;;5091135;28;20032;-66
2023/08/30 11:14:56;;;;;;;14.13;10.52;;;;;;;;;;5091039;28;20126;-66
2023/08/30 11:17:22;;;;;;;13.35;10.68;;;;;;;;;;5091774;28;20123;-66
2023/08/30 11:19:52;;;;;;;13.70;9.50;;;;;;;;;;5091636;28;20119;-66
2023/08/30 11:22:18;;;;;;;13.60;10.13;;;;;;;;;;5091920;28;20627;-66
2023/08/30 11:24:46;;;;;;;14.93;10.60;;;;;;;;;;5091620;28;20458;-66
2023/08/30 11:27:15;;;;;;;14.77;10.02;;;;;;;;;;5091934;28;20035;-66
2023/08/30 11:29:42;;;;;;;14.00;10.18;;;;;;;;;;5091523;28;20510;-66
2023/08/30 11:32:08;;;;;;;12.50;9.82;;;;;;;;;;5091469;28;20076;-66
2023/08/30 11:34:34;;;;;;;14.20;10.57;;;;;;;;;;5091888;28;20081;-66
2023/08/30 11:37:00;;;;;;;14.50;10.85;;;;;;;;;;5091498;28;20452;-66
2023/08/30 11:39:29;;;;;;;15.48;10.55;;;;;;;;;;5091463;28;20478;-66
2023/08/30 11:41:55;;;;;;;14.35;9.88;;;;;;;;;;5091572;28;20079;-66
2023/08/30 11:44:24;;;;;;;16.50;10.30;;;;;;;;;;5090207;28;20075;-66
2023/08/30 11:46:57;;;;;;;14.05;10.38;;;;;;;;;;5091167;28;20048;-66
2023/08/30 11:49:23;;;;;;;14.63;10.50;;;;;;;;;;5083926;28;20044;-66
2023/08/30 11:51:50;;;;;;;14.20;11.05;;;;;;;;;;5071438;28;20056;-66
2023/08/30 11:54:16;;;;;;;13.63;10.55;;;;;;;;;;5069920;28;20119;-66
2023/08/30 11:56:42;;;;;;;13.43;10.65;;;;;;;;;;5088125;28;20058;-66
2023/08/30 11:59:18;;;;;;;13.30;10.77;;;;;;;;;;5091619;28;20077;-66
2023/08/30 12:01:44;;;;;;;13.95;10.25;;;;;;;;;;5091053;28;20110;-66
2023/08/30 12:04:11;;;;;;;10.73;8.80;;;;;;;;;;5091462;28;20127;-66
2023/08/30 12:06:37;;;;;;;11.20;9.93;;;;;;;;;;5091097;28;20051;-66
2023/08/30 12:09:05;;;;;;;14.80;10.60;;;;;;;;;;5091157;28;20040;-66
2023/08/30 12:11:32;;;;;;;13.90;10.18;;;;;;;;;;5085111;28;20044;-66
2023/08/30 12:14:04;;;;;;;11.75;9.75;;;;;;;;;;5075987;28;20078;-66
2023/08/30 12:16:31;;;;;;;13.45;10.52;;;;;;;;;;5085231;28;20068;-66
2023/08/30 12:19:07;;;;;;;12.57;9.50;;;;;;;;;;5074433;28;20383;-66
2023/08/30 12:21:39;;;;;;;11.00;9.23;;;;;;;;;;5074504;28;20090;-66
2023/08/30 12:24:05;;;;;;;13.95;10.43;;;;;;;;;;5070419;28;20631;-66
2023/08/30 12:26:38;;;;;;;12.38;9.48;;;;;;;;;;5076618;28;20044;-66
2023/08/30 12:29:03;;;;;;;;;;;;;;;;;;5080667;28;20095;-67
2023/08/30 12:31:31;;;;;;;38.75;15.07;;;;;;;;;;5076121;28;20377;-66
2023/08/30 12:33:57;;;;;;;12.88;10.23;;;;;;;;;;5090606;28;20040;-66
2023/08/30 12:36:23;;;;;;;12.52;9.80;;;;;;;;;;5079993;28;20115;-66
2023/08/30 12:38:49;;;;;;;21.50;11.35;;;;;;;;;;5094058;28;20120;-66
2023/08/30 12:41:16;;;;;;;20.40;9.93;;;;;;;;;;5094155;28;20042;-67
2023/08/30 12:43:42;;;;;;;10.95;8.43;;;;;;;;;;5094451;28;20511;-66
2023/08/30 12:46:08;;;;;;;12.48;8.27;;;;;;;;;;5087601;28;20123;-67
2023/08/30 12:48:34;;;;;;;15.32;8.68;;;;;;;;;;5094457;28;20036;-66
2023/08/30 12:51:00;;;;;;;8.35;6.97;;;;;;;;;;5072236;28;20454;-67
2023/08/30 12:53:26;;;;;;;18.10;8.38;;;;;;;;;;5083260;28;20119;-66
2023/08/30 12:55:52;;;;;;;7.65;6.90;;;;;;;;;;5094192;28;20130;-66
2023/08/30 12:58:18;;;;;;;12.30;8.30;;;;;;;;;;5094241;28;20036;-66
2023/08/30 13:00:44;;;;;;;8.23;6.70;;;;;;;;;;5093097;28;20047;-66
2023/08/30 13:03:10;;;;;;;9.18;6.65;;;;;;;;;;5081858;28;20127;-66
2023/08/30 13:05:36;;;;;;;9.70;6.43;;;;;;;;;;5086490;28;20653;-67
2023/08/30 13:08:02;;;;;;;10.23;6.55;;;;;;;;;;5093793;28;20044;-67
2023/08/30 13:10:28;;;;;;;10.85;6.82;;;;;;;;;;5093687;28;20046;-66
2023/08/30 13:12:55;;;;;;;10.52;6.53;;;;;;;;;;5093451;28;20436;-67
2023/08/30 13:15:21;;;;;;;7.30;6.18;;;;;;;;;;5090570;28;20040;-67
2023/08/30 13:17:47;;;;;;;6.70;5.75;;;;;;;;;;5093902;28;20044;-66
2023/08/30 13:20:13;;;;;;;5.97;5.38;;;;;;;;;;5081357;28;20642;-65
2023/08/30 13:22:39;;;;;;;7.43;5.40;;;;;;;;;;5089039;28;20043;-65
2023/08/30 13:25:05;;;;;;;6.20;5.60;;;;;;;;;;5080789;28;20047;-67
2023/08/30 13:27:31;;;;;;;6.38;5.78;;;;;;;;;;5090532;28;20115;-67
2023/08/30 13:29:57;;;;;;;6.80;5.82;;;;;;;;;;5092946;28;20482;-67
2023/08/30 13:32:24;;;;;;;8.27;6.38;;;;;;;;;;5093698;28;20055;-67
2023/08/30 13:34:51;;;;;;;7.35;6.20;;;;;;;;;;5093573;28;20489;-67
2023/08/30 13:37:17;;;;;;;7.40;5.82;;;;;;;;;;5085704;28;20275;-67
2023/08/30 13:39:43;;;;;;;9.38;6.68;;;;;;;;;;5073288;28;20047;-67
2023/08/30 13:42:09;;;;;;;7.88;6.63;;;;;;;;;;5089312;28;20100;-67
2023/08/30 13:44:37;;;;;;;11.20;7.30;;;;;;;;;;5081131;28;20051;-67
2023/08/30 13:47:06;;;;;;;9.10;6.60;;;;;;;;;;5072751;28;20128;-67
2023/08/30 13:49:32;;;;;;;9.38;6.55;;;;;;;;;;5077792;28;20471;-67
2023/08/30 13:51:58;;;;;;;10.23;6.65;;;;;;;;;;5072552;28;20056;-67
2023/08/30 13:54:24;;;;;;;7.22;6.40;;;;;;;;;;5082419;28;20522;-67
2023/08/30 13:56:50;;;;;;;8.00;6.40;;;;;;;;;;5093148;28;20043;-67
2023/08/30 13:59:16;;;;;;;9.35;6.68;;;;;;;;;;5092251;28;20062;-67
2023/08/30 14:01:43;;;;;;;7.88;6.30;;;;;;;;;;5085161;28;20036;-67
2023/08/30 14:04:09;;;;;;;7.00;4.78;;;;;;;;;;5073021;28;20083;-67
2023/08/30 14:06:35;;;;;;;4.57;4.00;;;;;;;;;;5084555;28;20051;-67
2023/08/30 14:09:01;;;;;;;4.72;3.38;;;;;;;;;;5092092;28;20119;-67
2023/08/30 14:11:27;;;;;;;2.92;2.63;;;;;;;;;;5086638;28;20047;-67
2023/08/30 14:13:53;;;;;;;4.50;2.88;;;;;;;;;;5085597;28;20714;-67
2023/08/30 14:16:20;;;;;;;3.65;3.30;;;;;;;;;;5091672;28;20032;-67
2023/08/30 14:18:46;;;;;;;3.25;2.67;;;;;;;;;;5090899;28;20051;-67
2023/08/30 14:21:13;;;;;;;3.38;2.92;;;;;;;;;;5076656;28;20059;-67